• Join FlightAware (Why Join?)
  • Login
  • US Flag 
09:54PM EST


 

Airport Tracker/Info


-or-


 

Live Flight TrackerFlight Track Log ✈ EJA922 ✈ 06-Aug-2013 ✈ KTME - KABQ

Flight Track Log - Related Links

Times and Time Zones

All times are in EDT time to prevent confusion due to time zone crossing. See the EJA922 flight status page for this flight to view local times or setup timezone preferences in your user account.

Time Position Orientation Groundspeed Altitude Reporting Facility
EDT Latitude Longitude Course Direction KTS MPH feet Rate Location/Type
09:07AM 29.7806 -95.8997 303° West 245 282 1,000  Level Houston Center
09:07AM 29.7583 -95.8989 178° South 202 232 1,900 1,860 Climbing Houston Center
09:08AM 29.7283 -95.9272 219° Southwest 187 215 3,500 1,740 Climbing Houston Center
09:09AM 29.7408 -95.9986 281° West 214 246 5,500 1,920 Climbing Houston Center
09:10AM 30.2724 -96.7358 303° West  Level Estimated
09:10AM 29.7767 -96.0858 295° West 274 315 8,000  Level Houston Center
09:11AM 30.3387 -96.8562 303° West  Level Estimated
09:11AM 29.8075 -96.1711 293° West 287 330 10,400  Level Houston Center
09:12AM 30.4049 -96.9767 303° West  Level Estimated
09:12AM 29.8453 -96.2675 294° West 326 375 11,400  Level Houston Center
09:13AM 29.8947 -96.3997 293° West 372 428 13,600 1,920 Climbing Houston Center
09:14AM 29.9364 -96.5111 293° West 380 437 15,400 1,560 Climbing Houston Center
09:16AM 29.9714 -96.6292 289° West 388 447 16,900 1,500 Climbing Houston Center
09:17AM 29.9969 -96.7536 283° West 399 459 18,500 1,320 Climbing Houston Center
09:18AM 30.0222 -96.8775 283° West 400 460 19,700 1,140 Climbing Houston Center
09:19AM 30.0544 -97.0322 284° West 415 478 20,900 1,080 Climbing Houston Center
09:20AM 30.0814 -97.1631 283° West 420 483 22,000 1,140 Climbing Houston Center
09:21AM 30.1117 -97.3089 284° West 427 491 23,300 1,020 Climbing Houston Center
09:22AM 30.1419 -97.4447 284° West 429 494 24,200 960 Climbing Houston Center
09:23AM 30.1806 -97.5783 289° West 435 501 25,300 960 Climbing Houston Center
09:24AM 30.2203 -97.7178 288° West 445 512 26,300 960 Climbing Houston Center
09:25AM 30.2589 -97.8553 288° West 445 512 27,300 960 Climbing Houston Center
09:26AM 30.3031 -98.0108 288° West 445 512 28,400 960 Climbing Houston Center
09:27AM 30.3483 -98.1256 295° West 447 514 29,300 900 Climbing Houston Center
09:28AM 30.4206 -98.2492 304° West 456 525 30,300 1,020 Climbing Houston Center
09:29AM 30.5056 -98.3939 304° West 460 529 31,500 1,020 Climbing Houston Center
09:30AM 30.5803 -98.5211 304° West 469 540 32,500 1,020 Climbing Houston Center
09:31AM 30.6544 -98.6494 304° West 474 545 33,600 1,020 Climbing Houston Center
09:32AM 30.7303 -98.7789 304° West 477 549 34,600 960 Climbing Houston Center
09:33AM 30.8058 -98.9106 304° West 484 557 35,600 960 Climbing Houston Center
09:34AM 30.8828 -99.0433 304° West 488 562 36,600 960 Climbing Houston Center
09:35AM 30.9631 -99.1858 303° West 495 570 37,600 660 Climbing Houston Center
09:36AM 31.0392 -99.3197 304° West 498 573 38,000 180 Climbing Houston Center
09:37AM 31.1175 -99.4550 304° West 504 580 38,000  Level Houston Center
09:38AM 31.1925 -99.5875 304° West 495 570 38,000  Level Houston Center
09:39AM 31.2828 -99.7489 303° West 499 574 38,000  Level Houston Center
09:40AM 31.3575 -99.8817 303° West 493 567 38,000  Level Houston Center
09:41AM 31.4328 -100.0153 303° West 498 573 38,000  Level Houston Center
09:42AM 31.5106 -100.1536 303° West 506 582 38,000  Level Houston Center
09:43AM 31.5692 -100.2661 301° West 506 582 38,000  Level Fort Worth Center
09:44AM 31.6456 -100.4003 304° West 506 582 38,000  Level Fort Worth Center
09:45AM 31.7114 -100.5219 302° West 500 575 38,000  Level Fort Worth Center
09:46AM 31.7894 -100.6567 304° West 500 575 38,000  Level Fort Worth Center
09:47AM 31.8631 -100.7914 303° West 500 575 38,000  Level Fort Worth Center
09:48AM 31.9322 -100.9308 300° West 500 575 38,000  Level Fort Worth Center
09:49AM 32.0139 -101.0664 305° West 500 575 38,000  Level Fort Worth Center
09:50AM 32.0872 -101.1992 303° West 495 570 38,000  Level Fort Worth Center
09:51AM 32.1625 -101.3372 303° West 495 570 38,000  Level Fort Worth Center
09:52AM 32.2369 -101.4903 300° West 495 570 38,000  Level Fort Worth Center
09:53AM 32.3097 -101.6239 303° West 495 570 38,000  Level Fort Worth Center
09:54AM 32.3844 -101.7603 303° West 495 570 38,000  Level Fort Worth Center
09:55AM 32.4567 -101.8967 302° West 490 564 38,000  Level Fort Worth Center
09:56AM 32.5311 -102.0358 302° West 490 564 38,000  Level Fort Worth Center
09:57AM 32.6072 -102.1753 303° West 496 571 38,000  Level Fort Worth Center
09:58AM 32.6856 -102.3128 304° West 513 590 38,000  Level Fort Worth Center
09:59AM 32.7531 -102.4472 301° West 520 598 38,000  Level Fort Worth Center
10:00AM 32.8244 -102.5897 301° West 515 593 38,000  Level Fort Worth Center
10:01AM 32.8958 -102.7300 301° West 509 586 38,000  Level Fort Worth Center
10:03AM 33.0508 -103.0328 301° West 493 567 38,000  Level Albuquerque Center
10:04AM 33.1364 -103.1994 302° West 490 564 38,000  Level Albuquerque Center
10:05AM 33.2069 -103.3381 301° West 491 565 38,000  Level Albuquerque Center
10:06AM 33.2761 -103.4772 301° West 488 562 38,000  Level Albuquerque Center
10:07AM 33.3467 -103.6172 301° West 492 566 38,000  Level Albuquerque Center
10:08AM 33.4294 -103.7678 303° West 494 568 38,000  Level Albuquerque Center
10:09AM 33.4989 -103.9067 301° West 491 565 38,000  Level Albuquerque Center
10:11AM 33.5736 -104.0567 301° West 490 564 38,000 -540 Level Albuquerque Center
10:12AM 33.6447 -104.1986 301° West 498 573 37,000 -1,020 Descending Albuquerque Center
10:13AM 33.7217 -104.3558 301° West 508 585 36,000 -540 Descending Albuquerque Center
10:14AM 33.7931 -104.5025 300° West 510 587 36,000  Level Albuquerque Center
10:15AM 33.8636 -104.6450 301° West 502 578 36,000  Level Albuquerque Center
10:16AM 33.9389 -104.7992 301° West 497 572 36,000  Level Albuquerque Center
10:17AM 34.0083 -104.9406 301° West 495 570 36,000  Level Albuquerque Center
10:18AM 34.0758 -105.0767 301° West 495 570 36,000  Level Albuquerque Center
10:19AM 34.1469 -105.2200 301° West 493 567 36,000 -300 Level Albuquerque Center
10:20AM 34.2164 -105.3644 300° West 492 566 35,500 -1,080 Descending Albuquerque Center
10:21AM 34.2958 -105.5100 303° West 508 585 33,900 -2,100 Descending Albuquerque Center
10:22AM 34.3964 -105.6819 305° West 525 604 31,200 -2,760 Descending Albuquerque Center
10:23AM 34.4817 -105.8289 305° West 527 606 28,200 -2,940 Descending Albuquerque Center
10:24AM 34.5833 -106.0086 305° West 507 583 24,500 -2,760 Descending Albuquerque Center
10:25AM 34.6353 -106.0981 305° West 505 581 22,600 -2,520 Descending Albuquerque Center
10:26AM 34.7097 -106.2264 305° West 485 558 20,000 -2,400 Descending Albuquerque Center
10:28AM 34.8325 -106.4475 304° West 376 433 15,800 -2,220 Descending Albuquerque Center
10:29AM 34.8864 -106.5472 303° West 337 388 13,800 -1,440 Descending Albuquerque Center
10:30AM 34.9339 -106.6361 303° West 297 342 12,900 -420 Descending Albuquerque Center
10:31AM 34.9689 -106.7022 303° West 223 257 13,000 -900 Climbing Albuquerque Center
10:32AM 34.9875 -106.7725 288° West 216 249 11,200 -1,200 Descending Albuquerque Center
10:33AM 34.9931 -106.8411 276° West 209 241 10,600 -1,260 Descending Albuquerque Center
10:34AM 35.0472 -106.8583 345° North 213 245 8,700 -1,800 Descending Albuquerque Center
10:35AM 35.1033 -106.8492 North 173 199 7,000 -1,200 Descending Albuquerque Center
10:36AM 35.1464 -106.7983 44° Northeast 146 168 5,800 -840 Descending Albuquerque Center
10:38AM 35.0574 -106.6398 90° East  Level Estimated